createdAt,value
2022-08-07T00:00:46.878Z,15.74
2022-08-07T00:03:36.877Z,15.46
2022-08-07T00:06:32.884Z,15.47
2022-08-07T00:09:26.637Z,15.55
2022-08-07T00:12:21.706Z,15.48
2022-08-07T00:15:12.301Z,15.46
2022-08-07T00:18:03.452Z,15.31
2022-08-07T00:20:53.381Z,15.21
2022-08-07T00:23:42.424Z,15.16
2022-08-07T00:26:48.691Z,15.24
2022-08-07T00:29:39.578Z,15.21
2022-08-07T00:32:29.527Z,15.25
2022-08-07T00:35:23.481Z,15.30
2022-08-07T00:38:12.999Z,15.28
2022-08-07T00:41:01.818Z,15.17
2022-08-07T00:43:59.858Z,15.08
2022-08-07T00:46:50.742Z,14.94
2022-08-07T00:50:19.780Z,14.83
2022-08-07T00:52:49.643Z,14.72
2022-08-07T00:56:02.723Z,14.70
2022-08-07T00:58:50.400Z,14.73
2022-08-07T01:01:41.546Z,14.76
2022-08-07T01:04:35.505Z,14.79
2022-08-07T01:07:32.919Z,14.77
2022-08-07T01:10:22.266Z,14.63
2022-08-07T01:13:11.120Z,14.54
2022-08-07T01:16:06.350Z,14.46
2022-08-07T01:18:55.272Z,14.42
2022-08-07T01:21:45.732Z,14.51
2022-08-07T01:24:35.386Z,14.54
2022-08-07T01:27:23.957Z,14.51
2022-08-07T01:30:20.784Z,14.45
2022-08-07T01:33:16.204Z,14.27
2022-08-07T01:36:08.761Z,14.20
2022-08-07T01:39:00.313Z,14.11
2022-08-07T01:42:07.437Z,14.06
2022-08-07T01:44:57.761Z,14.00
2022-08-07T01:48:21.305Z,14.04
2022-08-07T01:50:58.945Z,14.08
2022-08-07T01:54:09.534Z,13.98
2022-08-07T01:57:03.607Z,13.94
2022-08-07T01:59:55.534Z,13.93
2022-08-07T02:03:18.803Z,13.76
2022-08-07T02:06:01.020Z,13.70
2022-08-07T02:08:54.383Z,13.69
2022-08-07T02:12:02.889Z,13.62
2022-08-07T02:14:57.535Z,13.44
2022-08-07T02:17:49.456Z,13.44
2022-08-07T02:20:38.645Z,13.45
2022-08-07T02:23:30.438Z,13.46
2022-08-07T02:26:34.349Z,13.08
2022-08-07T02:29:23.388Z,13.46
2022-08-07T02:32:14.205Z,13.56
2022-08-07T02:35:09.053Z,13.65
2022-08-07T02:37:59.151Z,13.52
2022-08-07T02:40:51.501Z,13.49
2022-08-07T02:43:47.706Z,13.37
2022-08-07T02:46:38.148Z,13.45
2022-08-07T02:49:56.109Z,13.41
2022-08-07T02:52:49.012Z,13.26
2022-08-07T02:56:04.195Z,13.29
2022-08-07T02:58:54.134Z,13.31
2022-08-07T03:01:47.234Z,13.19
2022-08-07T03:04:37.425Z,12.95
2022-08-07T03:07:58.872Z,12.98
2022-08-07T03:10:36.273Z,12.98
2022-08-07T03:13:29.815Z,13.00
2022-08-07T03:16:28.069Z,12.97
2022-08-07T03:19:16.631Z,12.91
2022-08-07T03:22:18.622Z,12.87
2022-08-07T03:25:10.416Z,12.74
2022-08-07T03:28:09.470Z,12.72
2022-08-07T03:31:24.871Z,12.69
2022-08-07T03:34:31.594Z,12.51
2022-08-07T03:37:32.822Z,12.62
2022-08-07T03:40:36.289Z,12.51
2022-08-07T03:43:26.440Z,12.43
2022-08-07T03:46:18.155Z,12.39
2022-08-07T03:49:08.881Z,12.43
2022-08-07T03:52:01.801Z,12.39
2022-08-07T03:54:55.159Z,12.48
2022-08-07T03:59:05.150Z,12.48
2022-08-07T04:01:00.328Z,12.50
2022-08-07T04:03:55.004Z,12.66
2022-08-07T04:06:44.239Z,12.59
2022-08-07T04:09:44.585Z,12.67
2022-08-07T04:12:35.732Z,12.59
2022-08-07T04:15:24.616Z,12.62
2022-08-07T04:18:57.571Z,12.64
2022-08-07T04:21:22.958Z,12.62
2022-08-07T04:24:30.423Z,12.55
2022-08-07T04:27:25.617Z,12.36
2022-08-07T04:30:21.510Z,12.37
2022-08-07T04:33:26.020Z,12.43
2022-08-07T04:36:17.511Z,12.54
2022-08-07T04:39:14.906Z,12.52
2022-08-07T04:42:06.992Z,12.54
2022-08-07T04:45:03.222Z,12.63
2022-08-07T04:48:10.345Z,12.56
2022-08-07T04:51:04.430Z,12.59
2022-08-07T04:54:06.103Z,12.68
2022-08-07T04:58:07.964Z,12.76
2022-08-07T05:00:17.276Z,12.75
2022-08-07T05:03:59.777Z,12.65
2022-08-07T05:06:43.625Z,12.78
2022-08-07T05:09:45.323Z,12.86
2022-08-07T05:12:53.068Z,13.09
2022-08-07T05:15:45.145Z,13.17
2022-08-07T05:18:36.993Z,13.14
2022-08-07T05:21:59.445Z,13.41
2022-08-07T05:24:39.513Z,13.47
2022-08-07T05:28:02.873Z,13.53
2022-08-07T05:30:39.852Z,13.51
2022-08-07T05:33:29.783Z,13.59
2022-08-07T05:36:22.711Z,13.52
2022-08-07T05:40:13.821Z,13.73
2022-08-07T05:42:34.715Z,13.92
2022-08-07T05:45:46.324Z,14.16
2022-08-07T05:48:34.841Z,14.24
2022-08-07T05:51:25.124Z,14.32
2022-08-07T05:54:30.653Z,14.33
2022-08-07T05:57:21.163Z,14.78
2022-08-07T06:00:16.659Z,15.06
2022-08-07T06:03:07.207Z,15.32
2022-08-07T06:05:56.692Z,15.53
2022-08-07T06:08:47.017Z,15.69
2022-08-07T06:11:40.316Z,15.83
2022-08-07T06:14:30.263Z,16.20
2022-08-07T06:17:22.408Z,16.45
2022-08-07T06:20:25.575Z,16.55
2022-08-07T06:23:46.680Z,16.78
2022-08-07T06:26:30.726Z,16.76
2022-08-07T06:29:19.222Z,17.06
2022-08-07T06:32:08.392Z,16.89
2022-08-07T06:34:56.900Z,17.38
2022-08-07T06:37:45.653Z,17.64
2022-08-07T06:40:38.542Z,17.93
2022-08-07T06:43:39.533Z,18.30
2022-08-07T06:46:35.297Z,18.69
2022-08-07T06:49:24.139Z,19.05
2022-08-07T06:52:17.041Z,19.46
2022-08-07T06:55:33.101Z,19.70
2022-08-07T06:58:34.455Z,19.63
2022-08-07T07:01:25.574Z,19.97
2022-08-07T07:04:32.724Z,20.03
2022-08-07T07:07:59.357Z,20.22
2022-08-07T07:10:33.334Z,20.51
2022-08-07T07:13:55.424Z,20.79
2022-08-07T07:16:49.947Z,20.86
2022-08-07T07:19:57.408Z,20.93
2022-08-07T07:24:09.092Z,21.37
2022-08-07T07:26:34.632Z,21.60
2022-08-07T07:29:38.536Z,21.83
2022-08-07T07:32:23.103Z,22.20
2022-08-07T07:35:12.833Z,22.33
2022-08-07T07:38:04.887Z,22.28
2022-08-07T07:41:01.465Z,22.44
2022-08-07T07:44:16.949Z,22.52
2022-08-07T07:47:14.259Z,22.75
2022-08-07T07:50:33.099Z,22.85
2022-08-07T07:53:25.726Z,23.34
2022-08-07T07:56:15.321Z,23.44
2022-08-07T07:59:06.339Z,23.54
2022-08-07T08:02:03.297Z,23.92
2022-08-07T08:04:54.145Z,24.08
2022-08-07T08:07:59.542Z,24.33
2022-08-07T08:10:49.748Z,24.22
2022-08-07T08:13:53.742Z,24.52
2022-08-07T08:16:50.470Z,24.56
2022-08-07T08:20:18.026Z,24.70
2022-08-07T08:23:09.445Z,24.53
2022-08-07T08:26:18.320Z,24.59
2022-08-07T08:29:08.296Z,24.70
2022-08-07T08:31:59.061Z,24.45
2022-08-07T08:35:08.834Z,24.74
2022-08-07T08:38:03.496Z,25.04
2022-08-07T08:40:57.543Z,25.14
2022-08-07T08:43:56.205Z,25.47
2022-08-07T08:47:06.304Z,25.64
2022-08-07T08:50:06.030Z,25.66
2022-08-07T08:52:57.592Z,25.85
2022-08-07T08:55:55.121Z,25.95
2022-08-07T08:58:54.443Z,26.11
2022-08-07T09:01:49.133Z,26.11
2022-08-07T09:04:25.900Z,26.12
2022-08-07T09:07:24.448Z,25.88
2022-08-07T09:10:19.149Z,26.24
2022-08-07T09:13:15.271Z,26.17
2022-08-07T09:16:20.276Z,26.14
2022-08-07T09:19:51.441Z,26.24
2022-08-07T09:24:31.059Z,26.24
2022-08-07T09:26:20.662Z,26.21
2022-08-07T09:30:03.367Z,26.55
2022-08-07T09:32:33.277Z,26.50
2022-08-07T09:36:05.425Z,26.64
2022-08-07T09:38:50.104Z,26.40
2022-08-07T09:42:02.948Z,26.39
2022-08-07T09:47:25.317Z,26.47
2022-08-07T09:48:29.666Z,26.31
2022-08-07T09:51:14.758Z,26.38
2022-08-07T09:54:03.435Z,26.10
2022-08-07T09:56:50.913Z,26.28
2022-08-07T09:59:46.127Z,26.50
2022-08-07T10:02:55.753Z,26.55
2022-08-07T10:05:59.101Z,26.32
2022-08-07T10:08:45.224Z,26.39
2022-08-07T10:12:01.359Z,26.29
2022-08-07T10:14:33.428Z,26.75
2022-08-07T10:17:16.691Z,27.18
2022-08-07T10:20:06.932Z,27.31
2022-08-07T10:23:03.307Z,26.88
2022-08-07T10:25:53.079Z,27.34
2022-08-07T10:28:36.799Z,26.78
2022-08-07T10:31:17.709Z,26.65
2022-08-07T10:34:05.572Z,27.04
2022-08-07T10:36:52.851Z,27.24
2022-08-07T10:40:02.963Z,27.51
2022-08-07T10:42:38.532Z,27.49
2022-08-07T10:45:17.740Z,27.28
2022-08-07T10:47:59.887Z,27.62
2022-08-07T10:50:35.754Z,27.42
2022-08-07T10:53:11.090Z,27.00
2022-08-07T10:55:46.625Z,27.42
2022-08-07T10:58:36.739Z,27.20
2022-08-07T11:01:35.658Z,27.16
2022-08-07T11:04:32.254Z,27.80
2022-08-07T11:07:15.019Z,28.19
2022-08-07T11:10:09.237Z,28.18
2022-08-07T11:12:45.861Z,28.14
2022-08-07T11:15:32.340Z,27.89
2022-08-07T11:18:05.387Z,28.17
2022-08-07T11:20:38.999Z,28.16
2022-08-07T11:23:26.212Z,27.65
2022-08-07T11:26:11.259Z,27.99
2022-08-07T11:28:55.391Z,28.32
2022-08-07T11:31:35.147Z,28.48
2022-08-07T11:34:10.206Z,28.10
2022-08-07T11:36:50.989Z,28.57
2022-08-07T11:40:00.726Z,28.89
2022-08-07T11:42:29.694Z,29.28
2022-08-07T11:45:03.562Z,28.76
2022-08-07T11:47:56.662Z,29.04
2022-08-07T11:50:36.386Z,29.10
2022-08-07T11:53:25.345Z,29.34
2022-08-07T11:56:24.823Z,28.84
2022-08-07T12:00:08.861Z,29.12
2022-08-07T12:02:02.385Z,29.07
2022-08-07T12:04:39.790Z,29.19
2022-08-07T12:07:20.199Z,29.13
2022-08-07T12:10:02.186Z,28.52
2022-08-07T12:12:37.833Z,28.76
2022-08-07T12:15:17.218Z,28.04
2022-08-07T12:18:11.294Z,28.74
2022-08-07T12:20:49.319Z,28.83
2022-08-07T12:24:05.134Z,29.10
2022-08-07T12:26:30.865Z,29.29
2022-08-07T12:29:14.026Z,29.35
2022-08-07T12:32:01.628Z,29.43
2022-08-07T12:34:34.138Z,29.50
2022-08-07T12:37:08.170Z,29.35
2022-08-07T12:39:42.439Z,28.94
2022-08-07T12:42:14.265Z,29.22
2022-08-07T12:44:50.373Z,29.26
2022-08-07T12:47:30.508Z,29.55
2022-08-07T12:50:33.828Z,29.51
2022-08-07T12:52:58.609Z,29.32
2022-08-07T12:55:40.997Z,29.15
2022-08-07T12:58:21.788Z,29.50
2022-08-07T13:01:04.056Z,29.42
2022-08-07T13:03:54.983Z,29.66
2022-08-07T13:06:36.443Z,30.03
2022-08-07T13:10:20.747Z,29.92
2022-08-07T13:12:26.833Z,29.78
2022-08-07T13:15:00.818Z,29.75
2022-08-07T13:17:39.974Z,29.84
2022-08-07T13:20:17.713Z,29.56
2022-08-07T13:23:59.953Z,29.83
2022-08-07T13:26:25.531Z,29.83
2022-08-07T13:29:18.030Z,29.58
2022-08-07T13:32:32.398Z,29.29
2022-08-07T13:36:00.361Z,29.43
2022-08-07T13:38:45.787Z,29.54
2022-08-07T13:41:41.594Z,29.62
2022-08-07T13:44:34.718Z,29.62
2022-08-07T13:48:07.745Z,29.74
2022-08-07T13:51:00.583Z,30.07
2022-08-07T13:54:01.715Z,29.91
2022-08-07T13:56:59.462Z,29.99
2022-08-07T13:59:54.951Z,30.11
2022-08-07T14:02:54.135Z,29.86
2022-08-07T14:05:46.235Z,29.82
2022-08-07T14:08:41.769Z,29.81
2022-08-07T14:11:53.595Z,29.74
2022-08-07T14:14:52.679Z,29.85
2022-08-07T14:18:13.642Z,29.96
2022-08-07T14:21:11.777Z,29.99
2022-08-07T14:24:15.170Z,30.10
2022-08-07T14:28:11.704Z,29.75
2022-08-07T14:30:15.266Z,29.82
2022-08-07T14:33:23.294Z,29.85
2022-08-07T14:36:14.979Z,29.60
2022-08-07T14:39:04.459Z,29.45
2022-08-07T14:42:20.142Z,29.43
2022-08-07T14:45:22.021Z,29.27
2022-08-07T14:48:19.842Z,29.41
2022-08-07T14:51:15.637Z,29.51
2022-08-07T14:57:55.221Z,29.72
2022-08-07T15:00:43.504Z,29.80
2022-08-07T15:03:51.684Z,29.22
2022-08-07T15:06:47.584Z,29.23
2022-08-07T15:09:58.313Z,28.82
2022-08-07T15:12:54.856Z,29.09
2022-08-07T15:18:56.933Z,29.01
2022-08-07T15:22:04.217Z,29.29
2022-08-07T15:25:16.382Z,29.43
2022-08-07T15:28:32.318Z,29.50
2022-08-07T15:34:29.490Z,28.82
2022-08-07T15:37:27.975Z,29.28
2022-08-07T15:43:53.742Z,29.31
2022-08-07T15:46:51.811Z,29.35
2022-08-07T15:50:05.022Z,29.18
2022-08-07T15:52:52.681Z,29.17
2022-08-07T15:55:53.416Z,29.13
2022-08-07T15:58:53.493Z,29.25
2022-08-07T16:01:46.376Z,29.16
2022-08-07T16:04:56.338Z,29.15
2022-08-07T16:08:32.669Z,28.69
2022-08-07T16:11:02.557Z,28.95
2022-08-07T16:14:03.265Z,28.85
2022-08-07T16:17:15.065Z,28.83
2022-08-07T16:20:33.985Z,28.79
2022-08-07T16:23:53.689Z,28.72
2022-08-07T16:26:59.568Z,28.68
2022-08-07T16:30:09.926Z,28.75
2022-08-07T16:34:02.931Z,28.71
2022-08-07T16:36:23.075Z,28.58
2022-08-07T16:39:33.759Z,28.65
2022-08-07T16:42:44.981Z,28.54
2022-08-07T16:46:21.088Z,28.46
2022-08-07T16:50:27.931Z,28.50
2022-08-07T16:54:01.769Z,28.08
2022-08-07T16:56:37.479Z,28.43
2022-08-07T16:59:47.149Z,28.21
2022-08-07T17:03:06.358Z,28.27
2022-08-07T17:06:29.573Z,28.21
2022-08-07T17:10:04.994Z,28.10
2022-08-07T17:12:44.600Z,28.14
2022-08-07T17:15:43.840Z,28.16
2022-08-07T17:18:46.155Z,28.07
2022-08-07T17:21:50.744Z,28.01
2022-08-07T17:24:52.879Z,28.05
2022-08-07T17:27:51.240Z,27.80
2022-08-07T17:30:57.574Z,27.86
2022-08-07T17:34:15.025Z,27.87
2022-08-07T17:37:09.652Z,27.81
2022-08-07T17:40:18.942Z,27.75
2022-08-07T17:44:00.910Z,27.71
2022-08-07T17:46:40.191Z,27.65
2022-08-07T17:49:44.875Z,27.55
2022-08-07T17:52:39.733Z,27.47
2022-08-07T17:55:55.949Z,27.42
2022-08-07T17:58:47.101Z,27.52
2022-08-07T18:01:46.221Z,27.59
2022-08-07T18:04:46.313Z,27.23
2022-08-07T18:07:43.887Z,27.19
2022-08-07T18:12:07.902Z,27.33
2022-08-07T18:13:53.123Z,27.16
2022-08-07T18:16:57.387Z,27.08
2022-08-07T18:21:09.408Z,26.98
2022-08-07T18:23:21.695Z,27.12
2022-08-07T18:26:19.904Z,27.02
2022-08-07T18:30:06.695Z,26.93
2022-08-07T18:32:46.150Z,26.85
2022-08-07T18:35:51.724Z,26.65
2022-08-07T18:38:57.998Z,26.50
2022-08-07T18:41:56.342Z,26.27
2022-08-07T18:45:42.763Z,25.59
2022-08-07T18:50:05.462Z,26.07
2022-08-07T18:52:25.628Z,25.90
2022-08-07T18:54:52.952Z,25.73
2022-08-07T18:57:58.650Z,25.67
2022-08-07T19:00:54.991Z,25.42
2022-08-07T19:03:56.412Z,25.33
2022-08-07T19:06:54.628Z,25.18
2022-08-07T19:09:54.876Z,24.97
2022-08-07T19:12:58.292Z,24.72
2022-08-07T19:16:43.153Z,24.58
2022-08-07T19:19:26.759Z,24.39
2022-08-07T19:22:31.408Z,24.23
2022-08-07T19:26:24.351Z,24.07
2022-08-07T19:30:54.737Z,23.88
2022-08-07T19:32:11.553Z,23.72
2022-08-07T19:35:00.739Z,23.54
2022-08-07T19:37:56.462Z,23.45
2022-08-07T19:40:50.161Z,23.35
2022-08-07T19:43:51.988Z,23.10
2022-08-07T19:46:55.676Z,23.00
2022-08-07T19:49:58.169Z,22.85
2022-08-07T19:52:59.262Z,22.75
2022-08-07T19:55:57.720Z,22.60
2022-08-07T19:58:53.213Z,22.28
2022-08-07T20:01:57.291Z,22.29
2022-08-07T20:04:49.329Z,22.19
2022-08-07T20:07:46.523Z,22.05
2022-08-07T20:10:54.395Z,21.93
2022-08-07T20:13:46.818Z,21.85
2022-08-07T20:16:36.845Z,21.79
2022-08-07T20:19:47.587Z,21.74
2022-08-07T20:22:40.754Z,21.66
2022-08-07T20:25:31.847Z,21.58
2022-08-07T20:28:31.851Z,21.53
2022-08-07T20:31:23.120Z,21.43
2022-08-07T20:34:13.589Z,21.32
2022-08-07T20:37:05.526Z,21.15
2022-08-07T20:40:02.560Z,21.07
2022-08-07T20:42:56.625Z,21.00
2022-08-07T20:46:27.636Z,20.90
2022-08-07T20:49:58.516Z,20.87
2022-08-07T20:52:17.345Z,20.66
2022-08-07T20:55:11.028Z,20.60
2022-08-07T20:58:03.359Z,20.37
2022-08-07T21:00:57.649Z,20.39
2022-08-07T21:04:13.087Z,20.34
2022-08-07T21:07:04.542Z,20.38
2022-08-07T21:10:04.130Z,20.35
2022-08-07T21:12:57.230Z,20.04
2022-08-07T21:16:00.604Z,20.03
2022-08-07T21:18:53.245Z,19.88
2022-08-07T21:21:49.219Z,19.82
2022-08-07T21:25:04.802Z,19.69
2022-08-07T21:28:09.038Z,19.60
2022-08-07T21:31:03.846Z,19.50
2022-08-07T21:34:04.335Z,19.44
2022-08-07T21:37:01.603Z,19.46
2022-08-07T21:39:54.754Z,19.40
2022-08-07T21:42:53.027Z,19.11
2022-08-07T21:46:10.418Z,19.22
2022-08-07T21:48:58.126Z,19.00
2022-08-07T21:52:00.803Z,19.18
2022-08-07T21:54:57.024Z,19.21
2022-08-07T21:57:54.652Z,19.12
2022-08-07T22:00:48.074Z,19.01
2022-08-07T22:03:42.140Z,18.59
2022-08-07T22:06:34.751Z,18.57
2022-08-07T22:09:26.401Z,18.46
2022-08-07T22:12:24.875Z,18.38
2022-08-07T22:16:40.195Z,18.36
2022-08-07T22:18:30.182Z,18.32
2022-08-07T22:21:23.161Z,18.08
2022-08-07T22:24:16.809Z,17.82
2022-08-07T22:27:10.198Z,18.12
2022-08-07T22:30:03.961Z,18.01
2022-08-07T22:33:05.387Z,17.91
2022-08-07T22:36:00.782Z,17.94
2022-08-07T22:38:53.053Z,17.95
2022-08-07T22:42:04.023Z,17.93
2022-08-07T22:44:59.723Z,17.96
2022-08-07T22:48:31.695Z,17.78
2022-08-07T22:51:31.851Z,17.62
2022-08-07T22:54:38.430Z,17.51
2022-08-07T22:57:46.709Z,17.47
2022-08-07T23:00:45.876Z,17.40
2022-08-07T23:03:58.418Z,17.22
2022-08-07T23:06:56.017Z,17.27
2022-08-07T23:10:03.381Z,17.29
2022-08-07T23:13:08.684Z,17.29
2022-08-07T23:16:05.785Z,17.24
2022-08-07T23:19:16.293Z,17.21
2022-08-07T23:22:10.673Z,17.14
2022-08-07T23:25:10.013Z,17.15
2022-08-07T23:28:28.429Z,16.98
2022-08-07T23:32:49.325Z,16.91
2022-08-07T23:34:54.995Z,16.88
2022-08-07T23:38:05.284Z,16.88
2022-08-07T23:41:03.824Z,16.95
2022-08-07T23:44:02.456Z,16.83
2022-08-07T23:47:02.986Z,16.68
2022-08-07T23:50:17.982Z,16.81
2022-08-07T23:53:16.750Z,16.67
2022-08-07T23:56:12.139Z,16.72
